Time;durP1;ratioP1;P1;durP2;ratioP2;P2;SDS_P1;SDS_P2;PMS_P1;PMS_P2;Temp;Humidity;BMP_temperature;BMP_pressure;BME280_temperature;BME280_humidity;BME280_pressure;Samples;Min_cycle;Max_cycle;Signal;HPM_P1;HPM_P2
2021/11/13 07:01:14;;;;;;;14.85;2.35;;;11.70;99.90;;;;;;5441195;23;20074;-84
2021/11/13 07:03:42;;;;;;;16.13;3.30;;;11.70;99.90;;;;;;4889154;29;20044;-85
2021/11/13 07:06:15;;;;;;;15.10;2.10;;;11.70;99.90;;;;;;4882499;29;20048;-85
2021/11/13 07:08:56;;;;;;;12.35;2.25;;;11.70;99.90;;;;;;4860578;29;20053;-86
2021/11/13 07:12:07;;;;;;;13.13;2.50;;;11.70;99.90;;;;;;4846809;29;20248;-86
2021/11/13 07:14:38;;;;;;;9.45;2.40;;;11.80;99.90;;;;;;4891527;29;20052;-84
2021/11/13 07:17:09;;;;;;;10.93;2.05;;;11.70;99.90;;;;;;4891173;29;20048;-84
2021/11/13 07:19:41;;;;;;;13.95;1.83;;;11.80;99.90;;;;;;4892535;29;20059;-85
2021/11/13 07:22:10;;;;;;;13.52;1.80;;;11.80;99.90;;;;;;4874995;29;20571;-86
2021/11/13 07:24:45;;;;;;;8.57;1.60;;;11.80;99.90;;;;;;4890344;29;20040;-85
2021/11/13 07:27:21;;;;;;;7.03;1.23;;;11.80;99.90;;;;;;4889758;29;20052;-85
2021/11/13 07:29:58;;;;;;;9.63;1.65;;;11.80;99.90;;;;;;4878812;29;20736;-85
2021/11/13 07:32:27;;;;;;;8.02;1.85;;;11.80;99.90;;;;;;4887867;29;20128;-83
2021/11/13 07:34:57;;;;;;;5.97;1.23;;;11.90;99.90;;;;;;4882530;29;20136;-84
2021/11/13 07:37:25;;;;;;;8.20;1.23;;;11.80;99.90;;;;;;4878881;29;20059;-83
2021/11/13 07:39:54;;;;;;;7.63;1.30;;;11.80;99.90;;;;;;4877496;29;20052;-84
2021/11/13 07:42:21;;;;;;;7.43;1.48;;;11.80;99.90;;;;;;4880795;29;20561;-84
2021/11/13 07:44:59;;;;;;;;;;;;;;;;;;;;;
2021/11/13 07:47:29;;;;;;;9.48;2.00;;;11.80;99.90;;;;;;4885724;29;20704;-84
2021/11/13 07:50:06;;;;;;;14.10;2.72;;;11.80;99.90;;;;;;4877031;29;20548;-85
2021/11/13 07:53:32;;;;;;;9.05;2.13;;;11.80;99.90;;;;;;4860364;29;20064;-91
2021/11/13 07:55:53;;;;;;;11.43;2.80;;;11.80;99.90;;;;;;4872243;29;20552;-87
2021/11/13 07:58:23;;;;;;;8.07;2.47;;;11.80;99.90;;;;;;4878839;29;20120;-85
2021/11/13 08:00:53;;;;;;;11.77;2.67;;;11.80;99.90;;;;;;4880825;29;20169;-85
2021/11/13 08:03:28;;;;;;;6.35;2.03;;;11.80;99.90;;;;;;4885980;29;20079;-85
2021/11/13 08:06:00;;;;;;;;;;;11.80;99.90;;;;;;4895897;29;20058;-83
2021/11/13 08:08:27;;;;;;;10.25;2.75;;;11.80;99.90;;;;;;4893295;29;20422;-85
2021/11/13 08:10:56;;;;;;;10.00;1.77;;;11.70;99.90;;;;;;4889362;29;20084;-84
2021/11/13 08:13:30;;;;;;;5.80;1.20;;;11.80;99.90;;;;;;4876119;29;20063;-85
2021/11/13 08:16:17;;;;;;;6.20;1.00;;;11.80;99.90;;;;;;4882862;29;20542;-89
2021/11/13 08:18:45;;;;;;;6.05;1.15;;;11.80;99.90;;;;;;4890207;29;20131;-84
2021/11/13 08:21:12;;;;;;;6.93;1.40;;;11.80;99.90;;;;;;4882239;29;20052;-84
2021/11/13 08:23:39;;;;;;;6.93;1.33;;;11.80;99.90;;;;;;4876297;29;20052;-83
2021/11/13 08:26:06;;;;;;;6.72;1.55;;;11.80;99.90;;;;;;4883371;29;20047;-84
2021/11/13 08:28:33;;;;;;;8.98;1.60;;;11.80;99.90;;;;;;4868340;29;20057;-84
2021/11/13 08:31:00;;;;;;;9.23;1.50;;;11.90;99.90;;;;;;4886090;29;20053;-84
2021/11/13 08:33:28;;;;;;;6.22;1.35;;;11.90;99.90;;;;;;4874361;29;20059;-83
2021/11/13 08:35:56;;;;;;;5.70;1.10;;;11.90;99.90;;;;;;4882146;29;20528;-85
2021/11/13 08:38:24;;;;;;;5.47;1.35;;;11.80;99.90;;;;;;4878200;29;20056;-84
2021/11/13 08:40:54;;;;;;;8.05;1.13;;;11.90;99.90;;;;;;4887464;29;20127;-83
2021/11/13 08:43:22;;;;;;;7.80;1.17;;;11.80;99.90;;;;;;4881555;29;20104;-86
2021/11/13 08:45:54;;;;;;;8.27;1.27;;;11.90;99.90;;;;;;4882344;29;20149;-84
2021/11/13 08:48:21;;;;;;;2.65;0.75;;;11.90;99.90;;;;;;4883760;29;20044;-84
2021/11/13 08:50:52;;;;;;;3.55;0.80;;;11.90;99.90;;;;;;4883929;29;20056;-83
2021/11/13 08:53:24;;;;;;;4.47;0.75;;;11.90;99.90;;;;;;4889812;29;20090;-84
2021/11/13 08:55:51;;;;;;;3.28;0.70;;;11.80;99.90;;;;;;4878173;29;20436;-83
2021/11/13 08:58:20;;;;;;;3.00;0.73;;;11.80;99.90;;;;;;4884922;29;20076;-86
2021/11/13 09:00:55;;;;;;;6.18;1.40;;;11.80;99.90;;;;;;4886991;29;20111;-85
2021/11/13 09:03:46;;;;;;;3.10;1.20;;;11.80;99.90;;;;;;4885914;29;20087;-85
2021/11/13 09:06:49;;;;;;;5.65;1.13;;;11.80;99.90;;;;;;4858538;29;20498;-86
2021/11/13 09:09:40;;;;;;;3.55;0.95;;;11.80;99.90;;;;;;4834284;29;20044;-85
2021/11/13 09:12:22;;;;;;;4.75;1.38;;;11.80;99.90;;;;;;4883301;29;20060;-84
2021/11/13 09:14:59;;;;;;;5.28;0.95;;;11.80;99.90;;;;;;4877712;29;20053;-86
2021/11/13 09:17:45;;;;;;;;;;;;;;;;;;;;;
2021/11/13 09:20:19;;;;;;;5.07;1.17;;;11.90;99.90;;;;;;4878649;29;20056;-85
2021/11/13 09:23:14;;;;;;;4.93;1.00;;;12.00;99.90;;;;;;4877177;29;20056;-85
2021/11/13 09:25:43;;;;;;;4.25;1.15;;;12.00;99.90;;;;;;4883797;29;20048;-84
2021/11/13 09:28:10;;;;;;;;;;;12.10;99.90;;;;;;4869099;29;20068;-80
2021/11/13 09:30:39;;;;;;;3.47;1.10;;;12.10;99.90;;;;;;4879229;29;19931;-83
2021/11/13 09:33:07;;;;;;;5.88;1.08;;;12.10;99.90;;;;;;4868267;29;20506;-84
2021/11/13 09:35:38;;;;;;;3.90;0.60;;;12.20;99.90;;;;;;4894133;29;20066;-85
2021/11/13 09:38:25;;;;;;;4.93;0.60;;;12.20;99.90;;;;;;4892365;29;20044;-85
2021/11/13 09:40:55;;;;;;;4.05;0.77;;;12.10;99.90;;;;;;4893913;29;20060;-84
2021/11/13 09:43:24;;;;;;;4.50;0.70;;;12.20;99.90;;;;;;4894186;29;20100;-84
2021/11/13 09:45:52;;;;;;;;;;;12.20;99.90;;;;;;4878351;29;20049;-85
2021/11/13 09:48:19;;;;;;;4.73;0.80;;;12.20;99.90;;;;;;4891841;29;19938;-85
2021/11/13 09:50:49;;;;;;;5.90;0.90;;;12.20;99.90;;;;;;4894862;29;20132;-84
2021/11/13 09:53:22;;;;;;;6.32;0.85;;;12.20;99.90;;;;;;4888505;29;20049;-85
2021/11/13 09:55:50;;;;;;;4.35;0.80;;;12.30;99.90;;;;;;4893082;29;20484;-85
2021/11/13 09:58:18;;;;;;;4.10;0.70;;;12.30;99.90;;;;;;4893472;29;20057;-84
2021/11/13 10:00:45;;;;;;;3.58;0.65;;;12.30;99.90;;;;;;4877956;29;20049;-85
2021/11/13 10:03:19;;;;;;;2.67;0.70;;;12.30;99.90;;;;;;4879856;29;20045;-84
2021/11/13 10:05:56;;;;;;;2.75;0.70;;;12.30;99.90;;;;;;4885649;29;20120;-86
2021/11/13 10:08:23;;;;;;;5.13;0.95;;;12.30;99.90;;;;;;4885717;29;20063;-87
2021/11/13 10:10:59;;;;;;;2.05;0.50;;;12.30;99.90;;;;;;4888326;29;20056;-85
2021/11/13 10:13:49;;;;;;;3.92;0.52;;;12.40;99.90;;;;;;4884749;29;20072;-82
2021/11/13 10:16:20;;;;;;;2.13;0.50;;;12.40;99.90;;;;;;4891792;29;20108;-85
2021/11/13 10:18:49;;;;;;;3.72;0.60;;;12.40;99.90;;;;;;4884830;29;20048;-84
2021/11/13 10:21:22;;;;;;;5.63;0.75;;;12.40;99.90;;;;;;4883094;29;20511;-84
2021/11/13 10:23:54;;;;;;;3.83;0.50;;;12.30;99.90;;;;;;4885447;29;20112;-84
2021/11/13 10:26:24;;;;;;;5.28;0.65;;;12.30;99.90;;;;;;4880474;29;20065;-84
2021/11/13 10:28:55;;;;;;;3.58;0.63;;;12.40;99.90;;;;;;4879041;29;20052;-83
2021/11/13 10:31:27;;;;;;;5.25;0.68;;;12.30;99.90;;;;;;4868273;29;20052;-83
2021/11/13 10:33:58;;;;;;;4.80;0.93;;;12.40;99.90;;;;;;4888363;29;20585;-85
2021/11/13 10:36:28;;;;;;;3.60;0.75;;;12.40;99.90;;;;;;4881521;29;20112;-82
2021/11/13 10:39:02;;;;;;;3.50;0.70;;;12.40;99.90;;;;;;4883812;29;20049;-83
2021/11/13 10:41:29;;;;;;;6.70;0.90;;;12.40;99.90;;;;;;4884131;29;20044;-85
2021/11/13 10:43:56;;;;;;;6.47;0.98;;;12.40;99.90;;;;;;4889260;29;20478;-85
2021/11/13 10:46:25;;;;;;;3.50;0.90;;;12.50;99.90;;;;;;4885381;29;20471;-84
2021/11/13 10:48:53;;;;;;;;;;;12.50;99.90;;;;;;4880505;29;20490;-84
2021/11/13 10:51:24;;;;;;;7.60;0.88;;;12.50;99.90;;;;;;4886330;29;19983;-83
2021/11/13 10:53:51;;;;;;;4.13;1.30;;;12.60;99.90;;;;;;4887177;29;20118;-83
2021/11/13 10:56:26;;;;;;;5.35;1.05;;;12.50;99.90;;;;;;4889481;29;20053;-84
2021/11/13 10:58:59;;;;;;;5.65;1.25;;;12.60;99.90;;;;;;4889396;29;20057;-83
2021/11/13 11:01:49;;;;;;;8.65;1.90;;;12.60;99.90;;;;;;4878309;29;20047;-84
2021/11/13 11:04:22;;;;;;;9.88;1.88;;;12.60;99.90;;;;;;4884470;29;20057;-82
2021/11/13 11:07:00;;;;;;;7.97;1.50;;;12.60;99.90;;;;;;4888344;29;20088;-83
2021/11/13 11:09:35;;;;;;;5.75;1.30;;;12.60;99.90;;;;;;4889187;29;20100;-83
2021/11/13 11:12:09;;;;;;;9.32;1.45;;;12.60;99.90;;;;;;4885893;29;20053;-82
2021/11/13 11:14:39;;;;;;;9.85;1.13;;;12.60;99.90;;;;;;4878326;29;20108;-82
2021/11/13 11:17:13;;;;;;;3.50;0.77;;;12.60;99.90;;;;;;4887490;29;20052;-84
2021/11/13 11:19:42;;;;;;;4.20;0.90;;;12.50;99.90;;;;;;4890371;29;20048;-87
2021/11/13 11:22:10;;;;;;;;;;;12.50;99.90;;;;;;4906024;29;20056;-83
2021/11/13 11:24:48;;;;;;;2.10;0.57;;;12.50;99.90;;;;;;4890265;29;19924;-83
2021/11/13 11:27:18;;;;;;;5.15;0.70;;;12.50;99.90;;;;;;4884880;29;20052;-82
2021/11/13 11:30:04;;;;;;;3.10;0.80;;;12.50;99.90;;;;;;4882036;29;20056;-82
2021/11/13 11:32:33;;;;;;;2.88;0.73;;;12.60;99.90;;;;;;4888858;29;20667;-82
2021/11/13 11:35:06;;;;;;;2.83;0.60;;;12.60;99.90;;;;;;4885801;29;20121;-80
2021/11/13 11:37:37;;;;;;;3.10;0.70;;;12.60;99.90;;;;;;4884137;29;20092;-82
2021/11/13 11:40:10;;;;;;;2.42;0.65;;;12.70;99.90;;;;;;4889379;29;20052;-83
2021/11/13 11:42:39;;;;;;;4.13;0.63;;;12.80;99.90;;;;;;4883555;29;20068;-82
2021/11/13 11:45:08;;;;;;;3.03;0.73;;;12.80;99.90;;;;;;4882879;29;20045;-79
2021/11/13 11:48:02;;;;;;;1.42;0.40;;;12.90;99.90;;;;;;4832981;29;20049;-85
2021/11/13 11:51:03;;;;;;;4.15;0.70;;;13.00;99.90;;;;;;4750848;29;20512;-84
2021/11/13 11:57:25;;;;;;;;;;;;;;;;;;;;;
2021/11/13 12:00:16;;;;;;;4.32;0.75;;;12.90;99.90;;;;;;4669235;30;19927;-84
2021/11/13 12:03:05;;;;;;;3.80;0.80;;;12.90;99.90;;;;;;4672183;30;20054;-85
2021/11/13 12:05:55;;;;;;;5.13;1.00;;;12.90;99.90;;;;;;4680583;30;20076;-85
2021/11/13 12:09:04;;;;;;;3.08;0.70;;;13.00;99.90;;;;;;4675465;30;20127;-85
2021/11/13 12:11:50;;;;;;;;;;;;;;;;;;;;;
2021/11/13 12:14:37;;;;;;;5.75;0.82;;;12.90;99.90;;;;;;4700727;30;20048;-84
2021/11/13 12:17:27;;;;;;;3.65;0.90;;;12.90;99.90;;;;;;4733741;29;20052;-84
2021/11/13 12:20:10;;;;;;;4.13;1.13;;;13.00;99.90;;;;;;4752994;29;20063;-83
2021/11/13 12:23:21;;;;;;;4.95;1.10;;;12.90;99.90;;;;;;4749123;30;20097;-84
2021/11/13 12:25:57;;;;;;;2.80;0.85;;;12.90;99.90;;;;;;4720353;30;20045;-84
2021/11/13 12:28:26;;;;;;;5.28;0.80;;;12.90;99.90;;;;;;4731664;30;20049;-84
2021/11/13 12:31:09;;;;;;;2.50;0.70;;;12.90;99.90;;;;;;4746497;30;20418;-86
2021/11/13 12:34:16;;;;;;;3.28;0.40;;;12.90;99.90;;;;;;4700550;30;20453;-85
2021/11/13 12:36:59;;;;;;;4.80;0.70;;;13.00;99.90;;;;;;4605143;30;20068;-84
2021/11/13 12:39:42;;;;;;;6.00;0.60;;;12.90;99.90;;;;;;4650018;30;20058;-84
2021/11/13 12:43:06;;;;;;;5.57;1.08;;;12.90;99.90;;;;;;4614440;30;20070;-85
2021/11/13 12:46:15;;;;;;;;;;;;;;;;;;;;;
2021/11/13 12:49:01;;;;;;;;;;;;;;;;;;;;;
2021/11/13 12:52:32;;;;;;;;;;;;;;;;;;;;;
2021/11/13 12:56:09;;;;;;;;;;;;;;;;;;;;;
2021/11/13 12:59:23;;;;;;;5.13;1.38;;;12.90;99.90;;;;;;4635967;30;20053;-86
2021/11/13 13:02:32;;;;;;;;;;;;;;;;;;;;;
2021/11/13 13:06:11;;;;;;;9.18;1.83;;;12.80;99.90;;;;;;4649058;30;20050;-86
2021/11/13 13:09:27;;;;;;;9.00;1.45;;;12.80;99.90;;;;;;4676414;30;20059;-86
2021/11/13 13:12:54;;;;;;;7.35;1.65;;;12.70;99.90;;;;;;4633444;30;20061;-86
2021/11/13 13:15:58;;;;;;;8.23;1.77;;;12.70;99.90;;;;;;4593919;30;20053;-86
2021/11/13 13:18:30;;;;;;;9.55;1.73;;;12.60;99.90;;;;;;4657111;30;20137;-84
2021/11/13 13:20:59;;;;;;;6.80;1.20;;;12.60;99.90;;;;;;4653520;30;20057;-85
2021/11/13 13:23:29;;;;;;;7.22;1.38;;;12.70;99.90;;;;;;4691036;30;20187;-84
2021/11/13 13:30:01;;;;;;;5.97;1.35;;;12.70;99.90;;;;;;4701155;29;20112;-84
2021/11/13 13:33:09;;;;;;;;;;;;;;;;;;;;;
2021/11/13 13:35:40;;;;;;;5.35;0.90;;;12.70;99.90;;;;;;4725998;29;20046;-84
2021/11/13 13:38:13;;;;;;;5.60;0.80;;;12.80;99.90;;;;;;4769920;29;20068;-85
2021/11/13 13:41:05;;;;;;;6.85;1.02;;;12.80;99.90;;;;;;4794678;29;20054;-82
2021/11/13 13:43:45;;;;;;;6.32;1.40;;;12.80;99.90;;;;;;4789258;29;20061;-83
2021/11/13 13:46:16;;;;;;;6.28;1.40;;;12.80;99.90;;;;;;4805286;29;20057;-83
2021/11/13 13:48:58;;;;;;;9.07;1.58;;;12.90;99.90;;;;;;4808882;29;20519;-82
2021/11/13 13:51:42;;;;;;;5.22;1.60;;;12.80;99.90;;;;;;4802734;29;20127;-84
2021/11/13 13:54:15;;;;;;;10.32;1.88;;;12.80;99.90;;;;;;4802864;29;20586;-84
2021/11/13 13:56:52;;;;;;;13.23;1.67;;;12.70;99.90;;;;;;4801669;29;20214;-84
2021/11/13 13:59:29;;;;;;;10.77;1.65;;;12.80;99.90;;;;;;4801747;29;20054;-85
2021/11/13 14:02:07;;;;;;;12.02;2.95;;;12.70;99.90;;;;;;4808265;29;20055;-81
2021/11/13 14:04:46;;;;;;;13.55;1.95;;;12.70;99.90;;;;;;4798717;29;20065;-84
2021/11/13 14:07:24;;;;;;;9.38;1.80;;;12.80;99.90;;;;;;4870956;29;20057;-83
2021/11/13 14:10:05;;;;;;;8.73;1.50;;;12.70;99.90;;;;;;4887948;29;20048;-84
2021/11/13 14:12:51;;;;;;;5.28;1.45;;;12.70;99.90;;;;;;4882650;29;20051;-84
2021/11/13 14:15:22;;;;;;;8.18;1.60;;;12.70;99.90;;;;;;4875703;29;20091;-85
2021/11/13 14:18:20;;;;;;;7.65;1.50;;;12.70;99.90;;;;;;4873839;29;20112;-83
2021/11/13 14:20:49;;;;;;;7.68;1.30;;;12.70;99.90;;;;;;4843985;29;20044;-85
2021/11/13 14:23:34;;;;;;;8.15;1.80;;;12.70;99.90;;;;;;4876925;29;20048;-84
2021/11/13 14:26:34;;;;;;;6.75;1.30;;;12.70;99.90;;;;;;4870030;29;20045;-83
2021/11/13 14:33:03;;;;;;;;;;;;;;;;;;;;;
2021/11/13 14:35:43;;;;;;;4.53;1.13;;;12.70;99.90;;;;;;4753271;29;20576;-82
2021/11/13 14:38:30;;;;;;;8.75;1.30;;;12.60;99.90;;;;;;4704379;30;20086;-84
2021/11/13 14:41:14;;;;;;;;;;;;;;;;;;;;;
2021/11/13 14:47:40;;;;;;;4.35;0.85;;;12.50;99.90;;;;;;4719622;30;20115;-86
2021/11/13 14:50:13;;;;;;;3.50;0.93;;;12.50;99.90;;;;;;4702945;30;20140;-84
2021/11/13 14:52:48;;;;;;;6.72;1.15;;;12.50;99.90;;;;;;4734364;30;20094;-85
2021/11/13 14:55:35;;;;;;;5.57;1.20;;;12.50;99.90;;;;;;4728383;29;20058;-85
2021/11/13 14:58:05;;;;;;;6.70;0.98;;;12.60;99.90;;;;;;4758925;30;20772;-84
2021/11/13 15:00:45;;;;;;;7.18;1.35;;;12.60;99.90;;;;;;4799233;29;20050;-85
2021/11/13 15:03:30;;;;;;;9.20;1.50;;;12.60;99.90;;;;;;4795875;29;20078;-84
2021/11/13 15:06:00;;;;;;;7.88;1.35;;;12.60;99.90;;;;;;4883367;29;20080;-82
2021/11/13 15:08:27;;;;;;;7.80;1.40;;;12.60;99.90;;;;;;4885820;29;20052;-81
2021/11/13 15:11:06;;;;;;;7.82;1.48;;;12.60;99.90;;;;;;4882254;29;20124;-84
2021/11/13 15:13:47;;;;;;;12.10;1.70;;;12.50;99.90;;;;;;4874868;29;20103;-83
2021/11/13 15:16:26;;;;;;;5.72;1.95;;;12.60;99.90;;;;;;4895214;29;20531;-83
2021/11/13 15:18:58;;;;;;;9.45;1.70;;;12.50;99.90;;;;;;4888656;29;20072;-84
2021/11/13 15:21:28;;;;;;;8.52;1.70;;;12.50;99.90;;;;;;4874087;29;20049;-83
2021/11/13 15:24:09;;;;;;;8.52;1.65;;;12.50;99.90;;;;;;4887375;29;20049;-84
2021/11/13 15:26:49;;;;;;;9.27;1.60;;;12.40;99.90;;;;;;4880210;29;20156;-85
2021/11/13 15:29:22;;;;;;;8.20;1.50;;;12.40;99.90;;;;;;4884432;29;20054;-84
2021/11/13 15:31:56;;;;;;;8.98;2.13;;;12.40;99.90;;;;;;4878852;29;20076;-84
2021/11/13 15:35:03;;;;;;;10.70;2.05;;;12.40;99.90;;;;;;4874292;29;20075;-87
2021/11/13 15:37:32;;;;;;;9.75;1.70;;;12.40;99.90;;;;;;4782419;29;20058;-81
2021/11/13 15:40:02;;;;;;;10.38;2.30;;;12.30;99.90;;;;;;4812597;29;20215;-84
2021/11/13 15:42:40;;;;;;;12.27;2.60;;;12.30;99.90;;;;;;4814771;29;20110;-84
2021/11/13 15:45:33;;;;;;;10.20;2.00;;;12.30;99.90;;;;;;4804453;29;20182;-84
2021/11/13 15:48:21;;;;;;;12.45;2.22;;;12.30;99.90;;;;;;4810345;29;20081;-84
2021/11/13 15:51:08;;;;;;;9.57;1.30;;;12.20;99.90;;;;;;4800887;29;20058;-85
2021/11/13 15:53:56;;;;;;;18.40;2.88;;;12.20;99.90;;;;;;4811257;29;20046;-83
2021/11/13 15:56:31;;;;;;;10.15;1.92;;;12.20;99.90;;;;;;4804206;29;20047;-84
2021/11/13 15:59:02;;;;;;;11.48;1.73;;;12.20;99.90;;;;;;4814864;29;20129;-84
2021/11/13 16:01:33;;;;;;;13.07;2.45;;;12.20;99.90;;;;;;4820191;29;20050;-84
2021/11/13 16:04:02;;;;;;;10.52;2.10;;;12.20;99.90;;;;;;4817927;29;20093;-85
2021/11/13 16:06:30;;;;;;;14.00;2.10;;;12.10;99.90;;;;;;4824124;29;20547;-87
2021/11/13 16:08:57;;;;;;;15.18;2.15;;;12.10;99.90;;;;;;4891754;29;20059;-85
2021/11/13 16:11:42;;;;;;;15.10;2.72;;;12.10;99.90;;;;;;4883610;29;20581;-84
2021/11/13 16:14:09;;;;;;;9.77;1.67;;;12.00;99.90;;;;;;4883240;29;20053;-85
2021/11/13 16:16:37;;;;;;;10.93;1.30;;;12.00;99.90;;;;;;4893646;29;20053;-86
2021/11/13 16:19:08;;;;;;;8.50;1.55;;;11.90;99.90;;;;;;4883262;29;20107;-86
2021/11/13 16:21:35;;;;;;;13.10;1.60;;;11.90;99.90;;;;;;4893254;29;20073;-85
2021/11/13 16:24:03;;;;;;;12.07;2.17;;;11.90;99.90;;;;;;4886686;29;20053;-87
2021/11/13 16:26:53;;;;;;;9.35;1.77;;;11.90;99.90;;;;;;4882309;29;20132;-85
2021/11/13 16:29:20;;;;;;;10.38;1.60;;;11.90;99.90;;;;;;4891508;29;20402;-85
2021/11/13 16:31:47;;;;;;;10.23;1.98;;;11.80;99.90;;;;;;4880815;29;20053;-86
2021/11/13 16:34:14;;;;;;;14.57;2.55;;;11.80;99.90;;;;;;4882013;29;20471;-88
2021/11/13 16:36:41;;;;;;;20.75;2.85;;;11.70;99.90;;;;;;4888162;29;20049;-85
2021/11/13 16:39:08;;;;;;;18.52;2.72;;;11.70;99.90;;;;;;4884661;29;20104;-86
2021/11/13 16:41:35;;;;;;;15.57;2.70;;;11.70;99.90;;;;;;4891478;29;20131;-87
2021/11/13 16:44:03;;;;;;;19.73;3.33;;;11.60;99.90;;;;;;4885938;29;20498;-87
2021/11/13 16:46:33;;;;;;;18.52;2.88;;;11.60;99.90;;;;;;4892412;29;20113;-88
2021/11/13 16:49:02;;;;;;;19.65;2.90;;;11.60;99.90;;;;;;4880944;29;20059;-87
2021/11/13 16:51:35;;;;;;;18.48;3.72;;;11.60;99.90;;;;;;4882623;29;20533;-86
2021/11/13 16:54:08;;;;;;;15.35;2.85;;;11.60;99.90;;;;;;4889356;29;20060;-86
2021/11/13 16:56:37;;;;;;;19.92;3.17;;;11.60;99.90;;;;;;4887862;29;20108;-87
2021/11/13 16:59:05;;;;;;;19.80;3.40;;;11.60;99.90;;;;;;4878103;29;20438;-87
2021/11/13 17:01:39;;;;;;;16.65;3.13;;;11.60;99.90;;;;;;4883341;29;20040;-87
2021/11/13 17:04:10;;;;;;;28.55;4.97;;;11.60;99.90;;;;;;4884603;29;20510;-85
2021/11/13 17:06:46;;;;;;;23.77;4.03;;;11.50;99.90;;;;;;4894540;29;20056;-87
2021/11/13 17:09:15;;;;;;;20.83;3.00;;;11.50;99.90;;;;;;4883235;29;20056;-88
2021/11/13 17:11:46;;;;;;;18.80;3.35;;;11.50;99.90;;;;;;4863603;29;20068;-87
2021/11/13 17:14:15;;;;;;;20.83;3.50;;;11.50;99.90;;;;;;4874094;29;20053;-87
2021/11/13 17:16:43;;;;;;;29.00;4.03;;;11.50;99.90;;;;;;4877502;29;20048;-87
2021/11/13 17:19:13;;;;;;;18.95;3.78;;;11.50;99.90;;;;;;4882642;29;20068;-86
2021/11/13 17:21:43;;;;;;;20.88;3.17;;;11.50;99.90;;;;;;4876951;29;20049;-87
2021/11/13 17:24:10;;;;;;;24.85;3.45;;;11.50;99.90;;;;;;4884571;29;20044;-86
2021/11/13 17:26:41;;;;;;;31.23;4.72;;;11.50;99.90;;;;;;4885879;29;20057;-87
2021/11/13 17:29:12;;;;;;;20.20;3.22;;;11.50;99.90;;;;;;4891975;29;20040;-87
2021/11/13 17:31:41;;;;;;;28.85;3.90;;;11.50;99.90;;;;;;4877631;29;20117;-89
2021/11/13 17:34:09;;;;;;;25.83;3.70;;;11.50;99.90;;;;;;4889716;29;20056;-87
2021/11/13 17:36:56;;;;;;;16.65;2.78;;;11.40;99.90;;;;;;4879856;29;20059;-86
2021/11/13 17:39:23;;;;;;;19.08;3.70;;;11.40;99.90;;;;;;4887541;29;20063;-85
2021/11/13 17:41:50;;;;;;;21.67;3.13;;;11.40;99.90;;;;;;4882165;29;20057;-87
2021/11/13 17:44:17;;;;;;;31.85;4.15;;;11.40;99.90;;;;;;4882585;29;20076;-87
2021/11/13 17:46:44;;;;;;;22.52;4.00;;;11.40;99.90;;;;;;4880565;29;20056;-84
2021/11/13 17:49:11;;;;;;;22.15;8.63;;;11.40;99.90;;;;;;4883826;29;20519;-83
2021/11/13 17:51:38;;;;;;;24.40;3.50;;;11.50;99.90;;;;;;4881539;29;20045;-85
2021/11/13 17:54:05;;;;;;;19.65;3.85;;;11.50;99.90;;;;;;4887048;29;20096;-85
2021/11/13 17:56:32;;;;;;;23.25;3.67;;;11.50;99.90;;;;;;4885017;29;20052;-84
2021/11/13 17:58:59;;;;;;;21.58;3.08;;;11.50;99.90;;;;;;4886345;29;20115;-85
2021/11/13 18:01:26;;;;;;;18.60;3.70;;;11.50;99.90;;;;;;4879880;29;20273;-82
2021/11/13 18:03:57;;;;;;;22.65;4.78;;;11.50;99.90;;;;;;4886067;29;20056;-86
2021/11/13 18:06:24;;;;;;;19.60;3.72;;;11.50;99.90;;;;;;4884979;29;20048;-86
2021/11/13 18:08:51;;;;;;;22.40;3.88;;;11.50;99.90;;;;;;4891664;29;20055;-84
2021/11/13 18:11:20;;;;;;;25.80;4.15;;;11.50;99.90;;;;;;4883823;29;20498;-85
2021/11/13 18:13:47;;;;;;;24.17;4.07;;;11.50;99.90;;;;;;4893600;29;20052;-85
2021/11/13 18:16:14;;;;;;;18.85;3.75;;;11.50;99.90;;;;;;4877602;29;20118;-85
2021/11/13 18:18:41;;;;;;;25.40;5.20;;;11.50;99.90;;;;;;4880655;29;20124;-86
2021/11/13 18:21:09;;;;;;;18.92;3.58;;;11.50;99.90;;;;;;4888743;29;20120;-83
2021/11/13 18:23:37;;;;;;;22.07;3.93;;;11.50;99.90;;;;;;4885442;29;20144;-85
2021/11/13 18:26:06;;;;;;;20.73;3.92;;;11.50;99.90;;;;;;4893306;29;20381;-82
2021/11/13 18:28:34;;;;;;;20.40;3.65;;;11.50;99.90;;;;;;4884672;29;20104;-84
2021/11/13 18:31:01;;;;;;;35.67;8.80;;;11.50;99.90;;;;;;4886240;29;20455;-84
2021/11/13 18:33:28;;;;;;;31.48;5.45;;;11.50;99.90;;;;;;4881409;29;20048;-84
2021/11/13 18:35:57;;;;;;;25.27;7.47;;;11.50;99.90;;;;;;4882988;29;20102;-84
2021/11/13 18:38:25;;;;;;;34.22;10.20;;;11.50;99.90;;;;;;4883874;29;20057;-82
2021/11/13 18:40:54;;;;;;;22.25;4.43;;;11.50;99.90;;;;;;4882917;29;20425;-84
2021/11/13 18:43:21;;;;;;;20.38;4.03;;;11.50;99.90;;;;;;4881614;29;20059;-85
2021/11/13 18:45:49;;;;;;;22.95;4.00;;;11.50;99.90;;;;;;4879264;29;20052;-84
2021/11/13 18:48:19;;;;;;;18.20;3.58;;;11.50;99.90;;;;;;4881845;29;20040;-84
2021/11/13 18:50:48;;;;;;;27.00;4.13;;;11.50;99.90;;;;;;4882049;29;20109;-85
2021/11/13 18:53:15;;;;;;;24.80;4.53;;;11.50;99.90;;;;;;4880516;29;20041;-84
2021/11/13 18:55:42;;;;;;;21.17;3.63;;;11.50;99.90;;;;;;4879081;29;20060;-84
2021/11/13 18:58:09;;;;;;;18.33;3.65;;;11.60;99.90;;;;;;4882498;29;20092;-82
2021/11/13 19:00:37;;;;;;;32.25;5.65;;;11.60;99.90;;;;;;4879556;29;20072;-83
2021/11/13 19:03:05;;;;;;;23.35;5.75;;;11.60;99.90;;;;;;4885116;29;20048;-84
2021/11/13 19:05:33;;;;;;;17.73;4.90;;;11.60;99.90;;;;;;4887980;29;20052;-82
2021/11/13 19:08:00;;;;;;;22.20;5.47;;;11.60;99.90;;;;;;4888169;29;20053;-83
2021/11/13 19:10:27;;;;;;;25.42;6.18;;;11.60;99.90;;;;;;4891485;29;20599;-83
2021/11/13 19:12:55;;;;;;;18.42;4.25;;;11.60;99.90;;;;;;4884851;29;20049;-85
2021/11/13 19:15:24;;;;;;;19.13;3.88;;;11.60;99.90;;;;;;4880998;29;20081;-83
2021/11/13 19:17:52;;;;;;;20.25;3.42;;;11.60;99.90;;;;;;4883849;29;20059;-83
2021/11/13 19:20:19;;;;;;;25.85;4.63;;;11.60;99.90;;;;;;4885276;29;20096;-81
2021/11/13 19:22:47;;;;;;;23.13;4.05;;;11.60;99.90;;;;;;4884877;29;20108;-82
2021/11/13 19:25:15;;;;;;;20.10;4.77;;;11.60;99.90;;;;;;4883266;29;20081;-84
2021/11/13 19:27:43;;;;;;;25.33;5.57;;;11.60;99.90;;;;;;4886112;29;20802;-83
2021/11/13 19:30:13;;;;;;;18.60;5.28;;;11.60;99.90;;;;;;4893901;29;20104;-84
2021/11/13 19:32:41;;;;;;;18.20;4.40;;;11.60;99.90;;;;;;4883456;29;20059;-83
2021/11/13 19:35:09;;;;;;;17.13;3.33;;;11.60;99.90;;;;;;4884592;29;20161;-84
2021/11/13 19:37:37;;;;;;;18.73;4.00;;;11.60;99.90;;;;;;4884473;29;20522;-83
2021/11/13 19:40:07;;;;;;;16.35;3.60;;;11.60;99.90;;;;;;4887120;29;20120;-83
2021/11/13 19:42:34;;;;;;;19.25;3.25;;;11.60;99.90;;;;;;4882013;29;20048;-83
2021/11/13 19:45:02;;;;;;;21.10;4.70;;;11.60;99.90;;;;;;4881236;29;20114;-83
2021/11/13 19:47:29;;;;;;;16.30;3.65;;;11.60;99.90;;;;;;4885168;29;20048;-84
2021/11/13 19:50:00;;;;;;;12.95;4.55;;;11.60;99.90;;;;;;4884622;29;20395;-84
2021/11/13 19:52:28;;;;;;;19.15;3.50;;;11.60;99.90;;;;;;4882500;29;20045;-84
2021/11/13 19:54:55;;;;;;;19.85;4.60;;;11.60;99.90;;;;;;4884394;29;20045;-84
2021/11/13 19:57:22;;;;;;;31.38;5.63;;;11.60;99.90;;;;;;4887023;29;20136;-83
2021/11/13 19:59:49;;;;;;;17.23;4.43;;;11.60;99.90;;;;;;4888210;29;20049;-83
2021/11/13 20:02:16;;;;;;;15.57;4.20;;;11.60;99.90;;;;;;4883066;29;20057;-83
2021/11/13 20:04:43;;;;;;;16.80;4.10;;;11.60;99.90;;;;;;4884893;29;20120;-82
2021/11/13 20:07:11;;;;;;;34.13;5.47;;;11.60;99.90;;;;;;4888401;29;20438;-82
2021/11/13 20:09:38;;;;;;;18.23;3.60;;;11.60;99.90;;;;;;4887318;29;20475;-83
2021/11/13 20:12:09;;;;;;;19.45;4.80;;;11.60;99.90;;;;;;4886388;29;20072;-84
2021/11/13 20:14:37;;;;;;;27.33;5.68;;;11.60;99.90;;;;;;4886032;29;20045;-84
2021/11/13 20:17:07;;;;;;;19.98;4.13;;;11.60;99.90;;;;;;4886327;29;20057;-81
2021/11/13 20:19:35;;;;;;;21.98;5.07;;;11.60;99.90;;;;;;4883076;29;20045;-84
2021/11/13 20:22:03;;;;;;;20.08;4.57;;;11.60;99.90;;;;;;4869691;29;20475;-84
2021/11/13 20:24:30;;;;;;;21.95;3.90;;;11.60;99.90;;;;;;4875860;29;20129;-85
2021/11/13 20:26:58;;;;;;;22.65;3.50;;;11.60;99.90;;;;;;4889273;29;20052;-85
2021/11/13 20:29:27;;;;;;;19.17;4.00;;;11.60;99.90;;;;;;4880065;29;20052;-84
2021/11/13 20:31:55;;;;;;;20.00;4.18;;;11.60;99.90;;;;;;4885434;29;20064;-85
2021/11/13 20:34:23;;;;;;;15.73;3.25;;;11.60;99.90;;;;;;4879857;29;20056;-85
2021/11/13 20:36:50;;;;;;;24.55;3.70;;;11.60;99.90;;;;;;4878297;29;20438;-85
2021/11/13 20:39:25;;;;;;;27.33;5.55;;;11.60;99.90;;;;;;4885142;29;20091;-84
2021/11/13 20:42:09;;;;;;;29.42;5.35;;;11.50;99.90;;;;;;4885430;29;20080;-85
2021/11/13 20:44:38;;;;;;;17.48;4.45;;;11.50;99.90;;;;;;4885395;29;20048;-84
2021/11/13 20:47:08;;;;;;;16.52;3.90;;;11.50;99.90;;;;;;4883054;29;20041;-82
2021/11/13 20:49:38;;;;;;;16.45;4.22;;;11.50;99.90;;;;;;4880854;29;20045;-85
2021/11/13 20:52:07;;;;;;;19.80;3.72;;;11.50;99.90;;;;;;4881608;29;20535;-86
2021/11/13 20:54:37;;;;;;;;;;;11.50;99.90;;;;;;4885501;29;20582;-85